Aviation Digital Data Service (ADDS)

Output produced by METARs form (0733 UTC 26 May 2015)
found at http://aviationweather.gov/adds/metars/
 
KJAX 260520Z 2606/2706 11005KT P6SM SCT025 
     TEMPO 2609/2613 BKN025 
     FM261300 13008KT P6SM BKN025 
     FM261600 13012KT P6SM BKN035